Wittman Regional Airport
KOSH : now visible

Airfield :











YOU CAN JOIN US ON...

 
LOGIN :

Register | Disclaimer

   EN    FR    IT 

 









Legend :    VFR   Marginal VFR   IFR   Intensive IFR   Very Intensive IFR
Visi :
Ceiling :
>= 8 km
>= 3000ft
5 to 8 km
1000 to 3000 ft
1500m to 5 km
500 to 1000 ft
800 to 1500m
200 to 500 ft
< 800m
< 200 ft
Symbols :   Thunderstorms  Fog  Heavy snow  Heavy precipitations  Wind > 20 kt






- Airport Elevation : 808 ft
- IATA code : OSH


KOSH - Wittman Regional

CURRENT METAR :
  • 131553Z 17010KT 10SM SCT085 28/21 A3012 RMK AO2 SLP184 T02830206

EXPIRED METARs :
  • 131453Z 20009KT 10SM CLR 27/19 A3013 RMK AO2 SLP187 T02720194 58003
  • 131353Z 17007KT 10SM CLR 26/19 A3014 RMK AO2 SLP193 T02560189
  • 131253Z 19007KT 10SM CLR 23/18 A3015 RMK AO2 SLP194 T02330178
  • 131153Z 20006KT 10SM CLR 21/17 A3013 RMK AO2 SLP190 T02110172 10217 20178 51005

Expired Forecast.
KZAU FIR / North America



MET'MAP, your aeronautical weather chart ! - Copyright ORBIFLY December 2007 - Disclaimer

ORBIFLY MET'MAP TEAM :

Programming & Development : Alexandra Zaïnal
Original concept : Baudouin d'Aumeries
Technical & hardware support : Manuel Goepfert
Assistance : Marc-Olivier Méhu




SOURCES & CREDITS :

   NOAA       Earth
Advisory